Terminal Aerodrome Forecast
Issued by NWS

Home | Current Version | Previous Version | Text Only | Print | Product List | Glossary On
Versions: 1 2 3 4 5 6 7 8 9 10 11 12 13 14 15 16 17 18 19 20 21 22
000
FTUS46 KLOX 262358
TAFSBA
TAF
KSBA 262358Z 2700/2724 26010KT P6SM SKC
     FM270400 VRB03KT P6SM SKC
     FM270800 VRB03KT P6SM SCT007
     FM271300 09005KT 4SM BR BKN004
     FM271600 15005KT P6SM SCT007
     FM272100 24010KT P6SM SKC=

USA.gov is the U.S. government's official web portal to all federal, state and local government web resources and services.